Darstellungsparameter: Aktuell verwendete Einstellungen:
Skalierung der Graphiken ... ?
xyx+y,   Skalierungsfaktor:      Skalierung: Modus: x, Faktor: 1
Darstellungszeitraum ... ?
Vom - - bis: - -   Zeitraum: 07.03.2021 - 07.03.2021
Min/Max/Avg-Anzeige ... ?
Zeige MMA aktuell
Zeige MMA Monat
Zeige MMA alles
Zeige --A aktuell
Zeige --A Monat
Zeige --A alles
Keine MMA-Anzeige
MMA:
Average (ber die Originaldaten)
MMA-Basis: 07.03.2021 - 07.03.2021
Quicknavigation für Darstellung... ?
Tage:      1T, 2T, 3T, 5T -1T -2T -3T -5T +1T +2T +3T +5T
Wochen: 1W, 2W, 3W -1W -2W -3W +1W +2W +3W
Monate: 1M, 3M, 6M -1M -3M -6M +1M +3M +6M
Jahre:    1J, 3J, 5J, 10J -1J -3J -5J -10J +1J +3J +5J +10J
Nutze für die Darstellung ... ?
Originaldaten oder Mittelwerte auf ...
Stundenbasis Tagesbasis Wochenbasis
Monatsbasis Jahresbasis      Datenbasis: Original-Daten
Darstellen als:
Statistik (Auto) Statistik J:M      Darstellung:

Der gewünschte Datumsbereich war nicht gültig/verfügbar und wurde korrigiert....
Das angegebene Enddatum (09.05.2023 23:59:59) liegt in der Zukunft.
Das angegebene Startdatum (07.05.2023 00:00:00) liegt in der Zukunft.


Zur Graphik,    zurück zur Übersicht aller Sensoren.
 
Tabellarische Datenbersicht: ?
 
Sensor: Nr:Datum:Temp:Abs-Feuchte:Windchill:Wind:
Aussen-T/F 1 07-03-2021 01:00:00 -3.1 C 3.39 g/m*3 -3.1 C 0 km/h
2 07-03-2021 01:05:00 -3.2 C 3.37 g/m*3 -3.2 C 0 km/h
3 07-03-2021 01:10:00 -3.2 C 3.41 g/m*3 -3.2 C 0 km/h
4 07-03-2021 01:15:00 -3.2 C 3.37 g/m*3 -3.2 C 0 km/h
5 07-03-2021 01:20:00 -3.3 C 3.38 g/m*3 -3.3 C 0 km/h
6 07-03-2021 01:25:00 -3.3 C 3.38 g/m*3 -3.3 C 0 km/h
7 07-03-2021 01:30:00 -3.4 C 3.36 g/m*3 -3.4 C 0 km/h
8 07-03-2021 01:35:00 -3.5 C 3.34 g/m*3 -3.5 C 0 km/h
9 07-03-2021 01:40:00 -3.5 C 3.34 g/m*3 -3.5 C 0 km/h
10 07-03-2021 01:45:00 -3.5 C 3.37 g/m*3 -3.5 C 0 km/h
11 07-03-2021 01:50:00 -3.4 C 3.36 g/m*3 -3.4 C 0 km/h
12 07-03-2021 01:55:00 -3.5 C 3.34 g/m*3 -3.5 C 0 km/h
13 07-03-2021 02:00:00 -3.5 C 3.37 g/m*3 -3.5 C 0 km/h
14 07-03-2021 02:05:00 -3.6 C 3.35 g/m*3 -3.6 C 0 km/h
15 07-03-2021 02:10:00 -3.7 C 3.29 g/m*3 -3.7 C 0 km/h
16 07-03-2021 02:15:00 -3.7 C 3.33 g/m*3 -3.7 C 0 km/h
17 07-03-2021 02:20:00 -3.8 C 3.3 g/m*3 -3.8 C 0 km/h
18 07-03-2021 02:25:00 -3.8 C 3.3 g/m*3 -3.8 C 0 km/h
19 07-03-2021 02:30:00 -3.8 C 3.3 g/m*3 -3.8 C 0 km/h
20 07-03-2021 02:35:00 -3.8 C 3.3 g/m*3 -3.8 C 0 km/h
21 07-03-2021 02:40:00 -3.8 C 3.34 g/m*3 -3.8 C 0 km/h
22 07-03-2021 02:45:00 -3.8 C 3.34 g/m*3 -3.8 C 0 km/h
23 07-03-2021 02:50:00 -3.8 C 3.3 g/m*3 -3.8 C 0 km/h
24 07-03-2021 02:55:00 -3.8 C 3.34 g/m*3 -3.8 C 0 km/h
25 07-03-2021 03:00:00 -3.8 C 3.34 g/m*3 -3.8 C 0 km/h
Sensor: Nr:Datum:Temp:Abs-Feuchte:Windchill:Wind:
Aussen-T/F 26 07-03-2021 03:05:00 -3.9 C 3.28 g/m*3 -3.9 C 0 km/h
27 07-03-2021 03:10:00 -3.9 C 3.28 g/m*3 -3.9 C 0 km/h
28 07-03-2021 03:15:00 -4 C 3.29 g/m*3 -4 C 0 km/h
29 07-03-2021 03:20:00 -4 C 3.29 g/m*3 -4 C 0 km/h
30 07-03-2021 03:25:00 -4 C 3.29 g/m*3 -4 C 0 km/h
31 07-03-2021 03:30:00 -4.1 C 3.27 g/m*3 -4.1 C 0 km/h
32 07-03-2021 03:35:00 -4.1 C 3.27 g/m*3 -4.1 C 0 km/h
33 07-03-2021 03:40:00 -4 C 3.29 g/m*3 -4 C 0 km/h
34 07-03-2021 03:45:00 -3.9 C 3.32 g/m*3 -3.9 C 0 km/h
35 07-03-2021 03:50:00 -3.9 C 3.35 g/m*3 -3.9 C 0 km/h
36 07-03-2021 03:55:00 -3.8 C 3.38 g/m*3 -3.8 C 0 km/h
37 07-03-2021 04:00:00 -3.8 C 3.38 g/m*3 -3.8 C 0 km/h
38 07-03-2021 04:05:00 -3.9 C 3.32 g/m*3 -3.9 C 0 km/h
39 07-03-2021 04:10:00 -4 C 3.29 g/m*3 -4 C 0 km/h
40 07-03-2021 04:15:00 -4.1 C 3.27 g/m*3 -4.1 C 0 km/h
41 07-03-2021 04:20:00 -4.2 C 3.25 g/m*3 -4.2 C 0 km/h
42 07-03-2021 04:25:00 -4.3 C 3.22 g/m*3 -4.3 C 0 km/h
43 07-03-2021 04:30:00 -4.3 C 3.22 g/m*3 -4.3 C 0 km/h
44 07-03-2021 04:35:00 -4.4 C 3.2 g/m*3 -4.4 C 0 km/h
45 07-03-2021 04:40:00 -4.4 C 3.24 g/m*3 -4.4 C 0 km/h
46 07-03-2021 04:45:00 -4.4 C 3.24 g/m*3 -4.4 C 0 km/h
47 07-03-2021 04:50:00 -4.5 C 3.21 g/m*3 -4.5 C 0 km/h
48 07-03-2021 04:55:00 -4.6 C 3.19 g/m*3 -4.6 C 0 km/h
49 07-03-2021 05:00:00 -4.7 C 3.17 g/m*3 -4.7 C 0 km/h
50 07-03-2021 05:05:00 -4.7 C 3.17 g/m*3 -4.7 C 0 km/h
Sensor: Nr:Datum:Temp:Abs-Feuchte:Windchill:Wind:
Aussen-T/F 51 07-03-2021 05:10:00 -4.8 C 3.14 g/m*3 -4.8 C 0 km/h
52 07-03-2021 05:15:00 -4.8 C 3.14 g/m*3 -4.8 C 0 km/h
53 07-03-2021 05:20:00 -4.9 C 3.12 g/m*3 -4.9 C 0 km/h
54 07-03-2021 05:25:00 -4.9 C 3.12 g/m*3 -4.9 C 0 km/h
55 07-03-2021 05:30:00 -4.9 C 3.12 g/m*3 -4.9 C 0 km/h
56 07-03-2021 05:35:00 -4.9 C 3.16 g/m*3 -4.9 C 0 km/h
57 07-03-2021 05:40:00 -4.9 C 3.16 g/m*3 -4.9 C 0 km/h
58 07-03-2021 05:45:00 -4.9 C 3.16 g/m*3 -4.9 C 0 km/h
59 07-03-2021 05:50:00 -4.9 C 3.16 g/m*3 -4.9 C 0 km/h
60 07-03-2021 05:55:00 -4.9 C 3.16 g/m*3 -4.9 C 0 km/h
61 07-03-2021 06:00:00 -4.9 C 3.16 g/m*3 -4.9 C 0 km/h
62 07-03-2021 06:05:00 -4.9 C 3.16 g/m*3 -4.9 C 0 km/h
63 07-03-2021 06:10:00 -4.9 C 3.16 g/m*3 -4.9 C 0 km/h
64 07-03-2021 06:15:00 -4.9 C 3.16 g/m*3 -4.9 C 0 km/h
65 07-03-2021 06:20:00 -4.9 C 3.16 g/m*3 -4.9 C 0 km/h
66 07-03-2021 06:25:00 -4.9 C 3.16 g/m*3 -4.9 C 0 km/h
67 07-03-2021 06:30:00 -4.9 C 3.16 g/m*3 -4.9 C 0 km/h
68 07-03-2021 06:35:00 -4.9 C 3.16 g/m*3 -4.9 C 0 km/h
69 07-03-2021 06:40:00 -4.9 C 3.16 g/m*3 -4.9 C 0 km/h
70 07-03-2021 06:45:00 -4.9 C 3.16 g/m*3 -4.9 C 0 km/h
71 07-03-2021 06:50:00 -5 C 3.13 g/m*3 -5 C 0 km/h
72 07-03-2021 06:55:00 -5 C 3.13 g/m*3 -5 C 0 km/h
73 07-03-2021 07:00:00 -5.1 C 3.11 g/m*3 -5.1 C 0 km/h
74 07-03-2021 07:05:00 -5.1 C 3.11 g/m*3 -5.1 C 0 km/h
75 07-03-2021 07:10:00 -5.2 C 3.09 g/m*3 -5.2 C 0 km/h

Legende:
   Min
   Max


Maximal/Minimal-Werte vom 07.03.2021 - 07.03.2021

Sensor Min Max Avg
Temp
(Aussen-T/F)
-5.2 °C
07-03-2021  07:10:00
-3.1 °C
07-03-2021  01:00:00
-4.21 °C
Abs-Feuchte
(Aussen-T/F)
3.09 g/m*3
07-03-2021  07:10:00
3.41 g/m*3
07-03-2021  01:10:00
3.21 g/m*3
Windchill
(Aussen-T/F)
-5.2 C
07-03-2021  07:10:00
-3.1 C
07-03-2021  01:00:00
-4.16 C

Die Daten stammen von einer Davis Vantage Pro 2 Wetter-Station und werden unter Linux mit der Software wview2wettercgi und aufbereitet. Alle Angaben erfolgen ohne Gewähr für ihre Vollständigkeit oder Richtigkeit.
Kontakt: Rainer Krienke krienke@uni-koblenz.de . Meine Webseiten an der Uni Koblenz oder privat.
Version: $Revision: 0.78 $